createdAt,value
2023-04-12T00:00:10.899Z,2.86
2023-04-12T00:02:39.951Z,2.74
2023-04-12T00:05:09.688Z,2.87
2023-04-12T00:07:40.360Z,2.88
2023-04-12T00:10:09.597Z,2.81
2023-04-12T00:12:38.124Z,2.78
2023-04-12T00:15:08.332Z,2.66
2023-04-12T00:17:36.702Z,2.64
2023-04-12T00:20:07.208Z,2.60
2023-04-12T00:22:37.022Z,2.48
2023-04-12T00:25:07.402Z,2.60
2023-04-12T00:27:35.666Z,2.48
2023-04-12T00:30:04.469Z,2.46
2023-04-12T00:32:32.630Z,2.46
2023-04-12T00:35:00.831Z,2.33
2023-04-12T00:37:28.976Z,2.46
2023-04-12T00:39:58.200Z,2.49
2023-04-12T00:42:27.692Z,2.51
2023-04-12T00:44:56.131Z,2.49
2023-04-12T00:47:24.382Z,2.46
2023-04-12T00:49:54.284Z,2.41
2023-04-12T00:52:23.549Z,2.35
2023-04-12T00:54:53.658Z,2.33
2023-04-12T00:57:22.405Z,2.19
2023-04-12T00:59:52.221Z,2.23
2023-04-12T01:02:20.618Z,2.14
2023-04-12T01:04:51.114Z,1.89
2023-04-12T01:07:26.252Z,2.20
2023-04-12T01:10:00.758Z,2.20
2023-04-12T01:12:38.804Z,2.13
2023-04-12T01:15:14.938Z,2.22
2023-04-12T01:17:50.382Z,2.15
2023-04-12T01:20:21.647Z,1.98
2023-04-12T01:23:31.188Z,2.07
2023-04-12T01:26:33.027Z,2.17
2023-04-12T01:29:10.593Z,1.97
2023-04-12T01:31:41.943Z,2.04
2023-04-12T01:34:12.957Z,2.08
2023-04-12T01:36:43.418Z,1.86
2023-04-12T01:39:11.933Z,1.85
2023-04-12T01:41:45.335Z,1.99
2023-04-12T01:44:15.699Z,1.81
2023-04-12T01:46:44.590Z,1.95
2023-04-12T01:49:13.808Z,1.91
2023-04-12T01:51:52.265Z,1.87
2023-04-12T01:54:23.647Z,1.65
2023-04-12T01:56:58.756Z,1.75
2023-04-12T01:59:33.173Z,1.63
2023-04-12T02:02:03.277Z,1.61
2023-04-12T02:04:34.594Z,1.62
2023-04-12T02:07:03.593Z,1.64
2023-04-12T02:09:31.955Z,1.42
2023-04-12T02:12:00.081Z,1.53
2023-04-12T02:14:31.742Z,1.42
2023-04-12T02:17:02.374Z,1.40
2023-04-12T02:19:31.415Z,1.43
2023-04-12T02:21:59.822Z,1.42
2023-04-12T02:24:30.963Z,1.38
2023-04-12T02:26:59.508Z,1.42
2023-04-12T02:29:30.103Z,1.47
2023-04-12T02:31:58.261Z,1.50
2023-04-12T02:34:31.328Z,1.54
2023-04-12T02:37:07.947Z,1.58
2023-04-12T02:39:37.252Z,1.51
2023-04-12T02:42:07.865Z,1.48
2023-04-12T02:44:37.478Z,1.45
2023-04-12T02:47:14.323Z,1.34
2023-04-12T02:49:46.361Z,1.29
2023-04-12T02:52:17.126Z,1.24
2023-04-12T02:55:20.363Z,1.23
2023-04-12T02:57:50.392Z,1.17
2023-04-12T03:00:21.595Z,1.12
2023-04-12T03:02:59.655Z,1.07
2023-04-12T03:05:30.329Z,0.89
2023-04-12T03:07:59.284Z,0.97
2023-04-12T03:10:37.111Z,1.02
2023-04-12T03:13:05.667Z,1.00
2023-04-12T03:15:38.300Z,0.87
2023-04-12T03:18:06.944Z,0.93
2023-04-12T03:20:47.473Z,0.89
2023-04-12T03:23:16.601Z,0.94
2023-04-12T03:25:47.870Z,0.87
2023-04-12T03:28:42.835Z,0.92
2023-04-12T03:31:12.634Z,0.88
2023-04-12T03:33:45.587Z,0.82
2023-04-12T03:36:24.219Z,0.79
2023-04-12T03:39:01.856Z,0.81
2023-04-12T03:41:32.754Z,0.78
2023-04-12T03:44:04.788Z,0.86
2023-04-12T03:46:36.346Z,0.83
2023-04-12T03:49:09.515Z,0.77
2023-04-12T03:51:42.618Z,0.57
2023-04-12T03:54:11.558Z,0.49
2023-04-12T03:56:49.722Z,0.55
2023-04-12T03:59:25.958Z,0.49
2023-04-12T04:01:55.574Z,0.56
2023-04-12T04:04:25.409Z,0.29
2023-04-12T04:06:57.766Z,0.46
2023-04-12T04:09:27.638Z,0.31
2023-04-12T04:11:55.980Z,0.40
2023-04-12T04:14:25.768Z,0.27
2023-04-12T04:16:55.757Z,0.35
2023-04-12T04:19:24.041Z,0.37
2023-04-12T04:21:53.244Z,0.41
2023-04-12T04:24:22.481Z,0.33
2023-04-12T04:26:54.409Z,0.51
2023-04-12T04:29:28.572Z,0.43
2023-04-12T04:31:58.281Z,0.28
2023-04-12T04:34:27.443Z,0.20
2023-04-12T04:37:04.411Z,0.23
2023-04-12T04:39:33.021Z,0.31
2023-04-12T04:42:01.528Z,0.72
2023-04-12T04:44:39.351Z,0.85
2023-04-12T04:47:12.030Z,0.93
2023-04-12T04:49:41.309Z,0.85
2023-04-12T04:52:23.968Z,1.00
2023-04-12T04:54:57.624Z,1.22
2023-04-12T04:57:27.894Z,1.43
2023-04-12T04:59:57.872Z,1.47
2023-04-12T05:02:27.505Z,1.31
2023-04-12T05:04:56.822Z,1.50
2023-04-12T05:07:27.910Z,1.23
2023-04-12T05:09:56.084Z,1.14
2023-04-12T05:12:24.330Z,1.20
2023-04-12T05:15:10.615Z,1.28
2023-04-12T05:17:41.829Z,1.87
2023-04-12T05:20:11.842Z,1.92
2023-04-12T05:22:40.920Z,1.92
2023-04-12T05:25:10.565Z,2.13
2023-04-12T05:27:46.076Z,2.32
2023-04-12T05:30:17.380Z,2.52
2023-04-12T05:32:47.657Z,2.65
2023-04-12T05:35:18.659Z,2.85
2023-04-12T05:37:48.449Z,3.04
2023-04-12T05:40:16.824Z,3.23
2023-04-12T05:42:45.424Z,3.36
2023-04-12T05:45:13.917Z,3.18
2023-04-12T05:47:44.750Z,3.53
2023-04-12T05:50:14.351Z,3.71
2023-04-12T05:52:42.688Z,3.74
2023-04-12T05:55:10.912Z,3.95
2023-04-12T05:57:42.256Z,3.94
2023-04-12T06:00:24.291Z,4.17
2023-04-12T06:02:52.606Z,4.18
2023-04-12T06:05:22.885Z,4.43
2023-04-12T06:07:51.206Z,4.45
2023-04-12T06:10:19.972Z,3.98
2023-04-12T06:12:51.574Z,4.40
2023-04-12T06:15:20.981Z,4.69
2023-04-12T06:17:53.853Z,4.90
2023-04-12T06:20:23.415Z,4.83
2023-04-12T06:22:51.859Z,5.01
2023-04-12T06:25:20.626Z,4.84
2023-04-12T06:27:49.734Z,5.24
2023-04-12T06:30:19.947Z,5.38
2023-04-12T06:32:49.597Z,5.37
2023-04-12T06:35:17.943Z,5.70
2023-04-12T06:37:47.475Z,5.82
2023-04-12T06:40:15.783Z,6.18
2023-04-12T06:42:43.905Z,6.19
2023-04-12T06:45:12.507Z,6.32
2023-04-12T06:47:40.694Z,6.41
2023-04-12T06:50:09.474Z,6.54
2023-04-12T06:52:37.644Z,6.42
2023-04-12T06:55:08.566Z,6.27
2023-04-12T06:57:36.703Z,6.59
2023-04-12T07:00:05.750Z,6.52
2023-04-12T07:02:34.012Z,6.63
2023-04-12T07:05:02.224Z,6.89
2023-04-12T07:07:30.350Z,7.07
2023-04-12T07:10:00.292Z,7.24
2023-04-12T07:12:29.776Z,7.42
2023-04-12T07:14:57.941Z,7.35
2023-04-12T07:17:27.116Z,7.63
2023-04-12T07:19:55.749Z,8.03
2023-04-12T07:22:24.505Z,8.23
2023-04-12T07:24:52.736Z,8.29
2023-04-12T07:27:20.912Z,8.38
2023-04-12T07:29:52.446Z,8.31
2023-04-12T07:32:20.711Z,8.50
2023-04-12T07:34:48.959Z,8.72
2023-04-12T07:37:17.902Z,8.61
2023-04-12T07:39:46.080Z,8.80
2023-04-12T07:42:14.241Z,8.82
2023-04-12T07:44:42.404Z,8.96
2023-04-12T07:47:11.907Z,9.40
2023-04-12T07:49:40.184Z,9.19
2023-04-12T07:52:08.453Z,9.38
2023-04-12T07:54:36.722Z,9.44
2023-04-12T07:57:05.065Z,9.37
2023-04-12T07:59:33.706Z,9.30
2023-04-12T08:02:03.063Z,9.69
2023-04-12T08:04:32.764Z,9.96
2023-04-12T08:07:01.294Z,9.85
2023-04-12T08:09:30.177Z,9.67
2023-04-12T08:11:58.342Z,9.85
2023-04-12T08:14:26.431Z,9.94
2023-04-12T08:16:54.558Z,9.79
2023-04-12T08:19:22.813Z,10.12
2023-04-12T08:21:52.869Z,9.99
2023-04-12T08:24:21.133Z,10.00
2023-04-12T08:26:49.668Z,10.36
2023-04-12T08:29:18.202Z,10.32
2023-04-12T08:31:47.536Z,10.36
2023-04-12T08:34:16.084Z,10.66
2023-04-12T08:36:44.221Z,10.52
2023-04-12T08:39:13.673Z,10.83
2023-04-12T08:41:42.536Z,10.50
2023-04-12T08:44:12.375Z,10.58
2023-04-12T08:46:41.096Z,10.67
2023-04-12T08:49:09.290Z,10.30
2023-04-12T08:51:37.841Z,10.92
2023-04-12T08:54:06.397Z,10.75
2023-04-12T08:56:37.129Z,10.92
2023-04-12T08:59:05.463Z,10.66
2023-04-12T09:01:34.448Z,11.15
2023-04-12T09:04:07.779Z,11.27
2023-04-12T09:06:36.388Z,11.30
2023-04-12T09:09:08.042Z,11.22
2023-04-12T09:11:38.147Z,11.45
2023-04-12T09:14:21.942Z,11.01
2023-04-12T09:16:50.799Z,10.94
2023-04-12T09:19:32.154Z,11.18
2023-04-12T09:22:01.129Z,11.24
2023-04-12T09:24:30.049Z,11.60
2023-04-12T09:27:09.200Z,11.94
2023-04-12T09:29:37.402Z,11.98
2023-04-12T09:32:07.696Z,11.72
2023-04-12T09:34:37.543Z,11.80
2023-04-12T09:37:14.074Z,12.20
2023-04-12T09:39:42.275Z,11.92
2023-04-12T09:42:29.678Z,11.77
2023-04-12T09:45:01.848Z,11.57
2023-04-12T09:47:38.336Z,11.87
2023-04-12T09:50:08.409Z,11.94
2023-04-12T09:52:38.144Z,12.16
2023-04-12T09:55:10.531Z,12.26
2023-04-12T09:57:42.975Z,12.22
2023-04-12T10:00:17.351Z,12.25
2023-04-12T10:02:47.810Z,12.65
2023-04-12T10:05:18.715Z,12.51
2023-04-12T10:07:48.117Z,12.68
2023-04-12T10:10:18.119Z,12.61
2023-04-12T10:12:49.392Z,12.98
2023-04-12T10:15:20.776Z,12.08
2023-04-12T10:17:53.551Z,12.14
2023-04-12T10:20:26.363Z,12.41
2023-04-12T10:22:59.908Z,12.10
2023-04-12T10:25:31.580Z,12.72
2023-04-12T10:28:15.353Z,12.89
2023-04-12T10:30:43.526Z,12.78
2023-04-12T10:33:19.289Z,13.06
2023-04-12T10:35:53.136Z,13.19
2023-04-12T10:38:23.252Z,12.94
2023-04-12T10:41:13.833Z,12.96
2023-04-12T10:43:43.736Z,13.32
2023-04-12T10:46:45.526Z,13.74
2023-04-12T10:49:15.358Z,13.67
2023-04-12T10:52:14.836Z,13.52
2023-04-12T10:54:43.205Z,13.42
2023-04-12T10:57:45.437Z,13.72
2023-04-12T11:00:16.460Z,13.25
2023-04-12T11:03:06.108Z,13.40
2023-04-12T11:05:59.212Z,13.35
2023-04-12T11:08:47.687Z,13.59
2023-04-12T11:11:27.491Z,13.67
2023-04-12T11:13:57.297Z,13.77
2023-04-12T11:16:26.948Z,13.94
2023-04-12T11:18:55.655Z,14.08
2023-04-12T11:21:25.521Z,13.46
2023-04-12T11:23:55.614Z,13.66
2023-04-12T11:26:24.192Z,13.57
2023-04-12T11:28:53.287Z,13.45
2023-04-12T11:31:23.162Z,13.78
2023-04-12T11:33:52.793Z,13.71
2023-04-12T11:36:21.150Z,13.87
2023-04-12T11:38:50.317Z,13.73
2023-04-12T11:41:18.682Z,14.11
2023-04-12T11:43:47.274Z,14.02
2023-04-12T11:46:16.387Z,14.30
2023-04-12T11:48:46.395Z,13.90
2023-04-12T11:51:24.822Z,14.24
2023-04-12T11:53:54.552Z,14.54
2023-04-12T11:56:23.957Z,14.30
2023-04-12T11:58:52.631Z,14.42
2023-04-12T12:01:22.271Z,14.61
2023-04-12T12:03:51.897Z,14.71
2023-04-12T12:06:22.853Z,14.38
2023-04-12T12:08:51.909Z,14.50
2023-04-12T12:11:21.533Z,14.58
2023-04-12T12:13:51.844Z,14.34
2023-04-12T12:16:25.495Z,14.15
2023-04-12T12:18:53.820Z,14.18
2023-04-12T12:21:24.056Z,14.41
2023-04-12T12:23:52.261Z,14.11
2023-04-12T12:26:22.680Z,14.32
2023-04-12T12:28:52.340Z,14.34
2023-04-12T12:31:22.231Z,14.23
2023-04-12T12:33:52.547Z,14.48
2023-04-12T12:36:21.345Z,14.54
2023-04-12T12:38:54.184Z,14.76
2023-04-12T12:41:25.725Z,14.83
2023-04-12T12:43:54.021Z,14.74
2023-04-12T12:46:22.875Z,14.73
2023-04-12T12:48:51.649Z,14.76
2023-04-12T12:51:20.231Z,14.52
2023-04-12T12:53:48.762Z,14.44
2023-04-12T12:56:18.548Z,14.71
2023-04-12T12:58:46.736Z,14.81
2023-04-12T13:01:15.014Z,15.26
2023-04-12T13:03:43.283Z,15.15
2023-04-12T13:06:11.538Z,15.46
2023-04-12T13:08:39.803Z,15.31
2023-04-12T13:11:08.442Z,15.57
2023-04-12T13:13:38.286Z,15.19
2023-04-12T13:16:07.303Z,15.14
2023-04-12T13:18:36.198Z,14.65
2023-04-12T13:21:04.671Z,14.62
2023-04-12T13:23:32.932Z,14.44
2023-04-12T13:26:01.060Z,14.46
2023-04-12T13:28:29.428Z,14.57
2023-04-12T13:30:59.257Z,14.43
2023-04-12T13:33:27.421Z,14.30
2023-04-12T13:35:55.679Z,14.31
2023-04-12T13:38:23.814Z,14.75
2023-04-12T13:40:51.971Z,15.05
2023-04-12T13:43:20.317Z,15.15
2023-04-12T13:45:48.502Z,15.28
2023-04-12T13:48:19.570Z,15.52
2023-04-12T13:50:50.192Z,15.04
2023-04-12T13:53:18.964Z,14.84
2023-04-12T13:55:49.976Z,14.92
2023-04-12T13:58:18.886Z,14.36
2023-04-12T14:00:47.126Z,14.45
2023-04-12T14:03:15.524Z,14.55
2023-04-12T14:05:45.550Z,14.84
2023-04-12T14:08:13.723Z,14.85
2023-04-12T14:10:41.919Z,15.12
2023-04-12T14:13:10.149Z,15.19
2023-04-12T14:15:38.726Z,14.97
2023-04-12T14:18:06.971Z,15.00
2023-04-12T14:20:35.499Z,15.27
2023-04-12T14:23:06.499Z,15.09
2023-04-12T14:25:37.035Z,15.01
2023-04-12T14:28:05.191Z,14.72
2023-04-12T14:30:33.759Z,14.75
2023-04-12T14:33:02.006Z,14.49
2023-04-12T14:35:30.180Z,14.60
2023-04-12T14:37:58.345Z,14.54
2023-04-12T14:40:27.983Z,14.81
2023-04-12T14:42:56.141Z,14.68
2023-04-12T14:45:24.329Z,14.54
2023-04-12T14:47:52.497Z,14.65
2023-04-12T14:50:21.254Z,14.75
2023-04-12T14:52:49.518Z,14.44
2023-04-12T14:55:18.394Z,14.33
2023-04-12T14:57:47.864Z,14.19
2023-04-12T15:00:17.049Z,14.08
2023-04-12T15:02:46.323Z,13.91
2023-04-12T15:05:14.848Z,13.93
2023-04-12T15:07:43.000Z,14.03
2023-04-12T15:10:14.120Z,13.92
2023-04-12T15:12:42.627Z,13.94
2023-04-12T15:15:13.130Z,13.97
2023-04-12T15:17:41.393Z,13.85
2023-04-12T15:20:11.583Z,13.86
2023-04-12T15:22:41.016Z,13.79
2023-04-12T15:25:10.720Z,13.43
2023-04-12T15:27:39.058Z,13.39
2023-04-12T15:30:10.793Z,13.32
2023-04-12T15:32:42.504Z,13.31
2023-04-12T15:37:42.744Z,13.22
2023-04-12T15:40:13.626Z,13.18
2023-04-12T15:42:42.917Z,13.13
2023-04-12T15:45:12.022Z,13.11
2023-04-12T15:47:42.009Z,13.00
2023-04-12T15:50:12.516Z,13.02
2023-04-12T15:52:42.952Z,12.98
2023-04-12T15:55:12.550Z,13.10
2023-04-12T15:57:40.726Z,12.96
2023-04-12T16:00:20.646Z,12.82
2023-04-12T16:02:54.461Z,12.87
2023-04-12T16:05:24.514Z,12.85
2023-04-12T16:07:52.731Z,12.71
2023-04-12T16:10:22.282Z,12.77
2023-04-12T16:12:52.025Z,12.88
2023-04-12T16:15:21.704Z,12.86
2023-04-12T16:17:54.369Z,12.56
2023-04-12T16:20:23.556Z,12.36
2023-04-12T16:22:54.942Z,12.44
2023-04-12T16:25:24.041Z,12.51
2023-04-12T16:27:52.960Z,12.36
2023-04-12T16:30:22.560Z,12.36
2023-04-12T16:32:53.413Z,12.23
2023-04-12T16:35:21.664Z,12.24
2023-04-12T16:37:49.904Z,12.32
2023-04-12T16:40:18.073Z,12.33
2023-04-12T16:42:46.550Z,12.29
2023-04-12T16:45:15.491Z,12.48
2023-04-12T16:47:46.341Z,12.38
2023-04-12T16:50:16.607Z,12.38
2023-04-12T16:52:44.764Z,12.32
2023-04-12T16:55:13.183Z,12.15
2023-04-12T16:57:44.387Z,12.02
2023-04-12T17:00:19.594Z,12.03
2023-04-12T17:02:49.841Z,11.90
2023-04-12T17:05:20.403Z,12.07
2023-04-12T17:07:50.505Z,12.05
2023-04-12T17:10:20.321Z,11.86
2023-04-12T17:12:51.291Z,11.92
2023-04-12T17:15:22.095Z,11.91
2023-04-12T17:17:51.952Z,11.91
2023-04-12T17:20:23.142Z,11.66
2023-04-12T17:22:52.157Z,11.59
2023-04-12T17:25:21.325Z,11.70
2023-04-12T17:27:52.850Z,11.52
2023-04-12T17:30:21.094Z,11.48
2023-04-12T17:32:49.311Z,11.45
2023-04-12T17:35:18.201Z,11.42
2023-04-12T17:37:48.209Z,11.39
2023-04-12T17:40:16.867Z,11.49
2023-04-12T17:42:45.294Z,11.42
2023-04-12T17:45:14.780Z,11.30
2023-04-12T17:47:43.929Z,11.24
2023-04-12T17:50:12.905Z,11.19
2023-04-12T17:52:42.373Z,11.19
2023-04-12T17:55:12.555Z,11.23
2023-04-12T17:57:40.988Z,11.23
2023-04-12T18:00:11.669Z,11.23
2023-04-12T18:02:44.368Z,11.18
2023-04-12T18:05:13.298Z,11.23
2023-04-12T18:07:42.601Z,11.32
2023-04-12T18:10:19.644Z,11.41
2023-04-12T18:12:49.372Z,11.21
2023-04-12T18:15:18.183Z,11.18
2023-04-12T18:17:46.494Z,11.23
2023-04-12T18:20:16.359Z,11.15
2023-04-12T18:22:45.898Z,11.20
2023-04-12T18:25:16.685Z,11.16
2023-04-12T18:27:47.527Z,11.06
2023-04-12T18:30:17.319Z,11.15
2023-04-12T18:32:45.742Z,11.17
2023-04-12T18:35:14.120Z,11.18
2023-04-12T18:37:42.732Z,11.18
2023-04-12T18:40:13.275Z,11.14
2023-04-12T18:42:44.281Z,11.26
2023-04-12T18:45:12.744Z,11.22
2023-04-12T18:47:42.148Z,11.14
2023-04-12T18:50:11.407Z,11.02
2023-04-12T18:52:39.784Z,10.96
2023-04-12T18:55:09.524Z,11.02
2023-04-12T18:57:37.731Z,11.10
2023-04-12T19:00:13.516Z,11.12
2023-04-12T19:02:42.135Z,11.06
2023-04-12T19:05:14.881Z,10.93
2023-04-12T19:07:43.043Z,11.02
2023-04-12T19:10:12.582Z,10.94
2023-04-12T19:12:40.949Z,10.90
2023-04-12T19:15:11.876Z,10.80
2023-04-12T19:17:40.382Z,10.72
2023-04-12T19:20:10.775Z,10.75
2023-04-12T19:22:38.984Z,10.79
2023-04-12T19:25:08.443Z,10.76
2023-04-12T19:27:36.796Z,10.75
2023-04-12T19:30:05.694Z,10.51
2023-04-12T19:32:35.381Z,10.52
2023-04-12T19:35:03.653Z,10.39
2023-04-12T19:37:34.075Z,10.45
2023-04-12T19:40:02.702Z,10.58
2023-04-12T19:42:31.028Z,10.33
2023-04-12T19:45:00.577Z,10.33
2023-04-12T19:47:29.088Z,10.41
2023-04-12T19:49:59.466Z,10.40
2023-04-12T19:52:28.524Z,10.38
2023-04-12T19:54:56.714Z,10.27
2023-04-12T19:57:25.057Z,10.09
2023-04-12T19:59:53.514Z,10.11
2023-04-12T20:02:22.076Z,10.15
2023-04-12T20:04:50.328Z,10.13
2023-04-12T20:07:19.856Z,10.29
2023-04-12T20:09:48.090Z,10.26
2023-04-12T20:12:17.519Z,10.45
2023-04-12T20:14:45.911Z,10.48
2023-04-12T20:17:14.075Z,10.35
2023-04-12T20:19:42.495Z,10.45
2023-04-12T20:22:11.029Z,10.40
2023-04-12T20:24:40.561Z,10.41
2023-04-12T20:27:09.443Z,10.39
2023-04-12T20:29:37.617Z,10.40
2023-04-12T20:32:06.668Z,10.39
2023-04-12T20:34:34.806Z,10.40
2023-04-12T20:37:02.997Z,10.57
2023-04-12T20:39:31.521Z,10.53
2023-04-12T20:42:01.560Z,10.44
2023-04-12T20:44:29.998Z,10.37
2023-04-12T20:46:58.588Z,10.46
2023-04-12T20:49:27.858Z,10.36
2023-04-12T20:51:57.037Z,10.43
2023-04-12T20:54:25.745Z,10.38
2023-04-12T20:56:54.925Z,10.45
2023-04-12T20:59:24.690Z,10.27
2023-04-12T21:01:53.437Z,10.34
2023-04-12T21:04:22.490Z,10.34
2023-04-12T21:06:55.405Z,10.28
2023-04-12T21:09:24.311Z,10.27
2023-04-12T21:11:53.081Z,10.18
2023-04-12T21:14:21.321Z,10.17
2023-04-12T21:16:50.902Z,10.13
2023-04-12T21:19:19.437Z,10.10
2023-04-12T21:21:48.025Z,10.19
2023-04-12T21:24:16.181Z,10.11
2023-04-12T21:26:45.043Z,10.09
2023-04-12T21:29:13.211Z,10.08
2023-04-12T21:31:41.651Z,9.97
2023-04-12T21:34:11.297Z,9.75
2023-04-12T21:36:39.913Z,9.93
2023-04-12T21:39:08.556Z,9.72
2023-04-12T21:41:37.476Z,9.81
2023-04-12T21:44:05.797Z,9.77
2023-04-12T21:46:33.997Z,9.65
2023-04-12T21:49:02.215Z,9.54
2023-04-12T21:51:31.807Z,9.59
2023-04-12T21:54:00.104Z,9.60
2023-04-12T21:56:28.232Z,9.37
2023-04-12T21:58:58.149Z,9.16
2023-04-12T22:01:27.219Z,9.00
2023-04-12T22:03:55.749Z,8.99
2023-04-12T22:06:24.014Z,8.95
2023-04-12T22:08:53.776Z,9.01
2023-04-12T22:11:21.893Z,8.96
2023-04-12T22:13:50.253Z,9.04
2023-04-12T22:16:18.448Z,8.96
2023-04-12T22:18:46.919Z,8.83
2023-04-12T22:21:17.635Z,8.89
2023-04-12T22:23:46.268Z,8.81
2023-04-12T22:26:15.784Z,8.83
2023-04-12T22:28:44.388Z,8.78
2023-04-12T22:31:16.002Z,8.79
2023-04-12T22:33:47.771Z,8.85
2023-04-12T22:36:15.992Z,8.71
2023-04-12T22:38:44.205Z,8.68
2023-04-12T22:41:17.879Z,8.68
2023-04-12T22:43:47.792Z,8.66
2023-04-12T22:46:17.395Z,8.85
2023-04-12T22:48:47.735Z,8.79
2023-04-12T22:51:16.589Z,8.90
2023-04-12T22:53:44.877Z,8.88
2023-04-12T22:56:13.502Z,8.94
2023-04-12T22:58:43.110Z,8.95
2023-04-12T23:01:11.389Z,8.85
2023-04-12T23:03:41.852Z,8.98
2023-04-12T23:06:12.675Z,8.67
2023-04-12T23:08:40.846Z,8.79
2023-04-12T23:11:08.990Z,8.72
2023-04-12T23:13:37.189Z,8.70
2023-04-12T23:16:08.727Z,8.72
2023-04-12T23:18:37.789Z,8.77
2023-04-12T23:21:06.461Z,8.90
2023-04-12T23:23:34.600Z,8.75
2023-04-12T23:26:02.767Z,8.86
2023-04-12T23:28:30.908Z,8.72
2023-04-12T23:31:01.590Z,8.88
2023-04-12T23:33:31.268Z,8.82
2023-04-12T23:36:03.046Z,8.70
2023-04-12T23:38:33.777Z,8.70
2023-04-12T23:41:03.969Z,8.76
2023-04-12T23:43:33.438Z,8.55
2023-04-12T23:46:03.106Z,8.57
2023-04-12T23:48:33.631Z,8.66
2023-04-12T23:51:01.871Z,8.65
2023-04-12T23:53:30.025Z,8.67
2023-04-12T23:55:58.518Z,8.60
2023-04-12T23:58:27.059Z,8.69
